Time;durP1;ratioP1;P1;durP2;ratioP2;P2;SDS_P1;SDS_P2;PMS_P1;PMS_P2;Temp;Humidity;BMP_temperature;BMP_pressure;BME280_temperature;BME280_humidity;BME280_pressure;Samples;Min_cycle;Max_cycle;Signal;HPM_P1;HPM_P2
2020/12/31 00:00:19;;;;;;;10.00;4.53;;;5.70;99.90;;;;;;3620770;39;20263;-75
2020/12/31 00:02:46;;;;;;;9.23;5.20;;;5.60;99.90;;;;;;3621523;39;20623;-75
2020/12/31 00:05:12;;;;;;;6.95;5.07;;;5.60;99.90;;;;;;3623904;39;20276;-75
2020/12/31 00:07:39;;;;;;;6.03;4.45;;;5.50;99.90;;;;;;3621754;39;20285;-75
2020/12/31 00:10:05;;;;;;;6.97;5.70;;;5.50;99.90;;;;;;3620472;39;20252;-75
2020/12/31 00:12:32;;;;;;;14.48;6.15;;;5.40;99.90;;;;;;3621664;39;20272;-76
2020/12/31 00:15:00;;;;;;;5.47;4.97;;;5.30;99.90;;;;;;3623574;39;20256;-75
2020/12/31 00:17:26;;;;;;;7.20;5.13;;;5.30;99.90;;;;;;3621977;39;20260;-74
2020/12/31 00:19:53;;;;;;;8.30;5.72;;;5.20;99.90;;;;;;3623603;39;20310;-74
2020/12/31 00:22:19;;;;;;;12.20;5.80;;;5.20;99.90;;;;;;3622308;39;20360;-74
2020/12/31 00:24:46;;;;;;;8.32;6.05;;;5.10;99.90;;;;;;3621821;39;20248;-74
2020/12/31 00:27:12;;;;;;;6.35;5.13;;;5.00;99.90;;;;;;3621611;39;20792;-74
2020/12/31 00:29:39;;;;;;;9.73;5.65;;;5.00;99.90;;;;;;3624534;39;20819;-74
2020/12/31 00:32:09;;;;;;;8.50;5.18;;;5.00;99.90;;;;;;3624224;39;20240;-74
2020/12/31 00:34:36;;;;;;;7.45;5.22;;;4.90;99.90;;;;;;3624928;39;20280;-75
2020/12/31 00:37:02;;;;;;;8.75;5.43;;;4.90;99.90;;;;;;3621798;39;20263;-75
2020/12/31 00:39:30;;;;;;;10.57;6.00;;;4.90;99.90;;;;;;3621623;39;20247;-75
2020/12/31 00:41:56;;;;;;;18.35;5.55;;;4.90;99.90;;;;;;3621322;39;20264;-75
2020/12/31 00:44:23;;;;;;;9.40;6.15;;;5.00;99.90;;;;;;3621418;39;20264;-75
2020/12/31 00:46:49;;;;;;;6.10;5.18;;;5.00;99.90;;;;;;3620421;39;20248;-75
2020/12/31 00:49:17;;;;;;;9.48;5.38;;;4.90;99.90;;;;;;3621541;39;20247;-75
2020/12/31 00:51:43;;;;;;;7.88;5.60;;;5.00;99.90;;;;;;3621871;39;20287;-75
2020/12/31 00:54:09;;;;;;;10.07;6.68;;;5.00;99.90;;;;;;3621419;39;20252;-75
2020/12/31 00:56:36;;;;;;;7.97;4.90;;;4.90;99.90;;;;;;3622349;39;20255;-75
2020/12/31 00:59:02;;;;;;;9.07;5.53;;;4.90;99.90;;;;;;3624796;39;20248;-75
2020/12/31 01:01:29;;;;;;;6.95;5.32;;;4.90;99.90;;;;;;3622449;39;20247;-74
2020/12/31 01:03:56;;;;;;;5.93;4.68;;;4.90;99.90;;;;;;3621942;39;20270;-74
2020/12/31 01:06:23;;;;;;;8.30;5.47;;;4.80;99.90;;;;;;3621535;39;20260;-74
2020/12/31 01:08:50;;;;;;;8.88;5.95;;;4.80;99.90;;;;;;3622138;39;22673;-74
2020/12/31 01:11:17;;;;;;;9.90;5.82;;;4.90;99.90;;;;;;3621499;39;20256;-75
2020/12/31 01:13:44;;;;;;;8.52;5.40;;;5.00;99.90;;;;;;3621766;39;22917;-74
2020/12/31 01:16:11;;;;;;;8.68;5.18;;;5.00;99.90;;;;;;3621124;39;20317;-74
2020/12/31 01:18:37;;;;;;;9.25;5.97;;;5.10;99.90;;;;;;3621550;39;20248;-75
2020/12/31 01:21:09;;;;;;;10.73;6.18;;;5.10;99.90;;;;;;3623932;39;20267;-74
2020/12/31 01:23:37;;;;;;;11.65;5.95;;;5.10;99.90;;;;;;3623482;39;20671;-74
2020/12/31 01:26:03;;;;;;;7.57;6.03;;;5.10;99.90;;;;;;3623778;39;20845;-74
2020/12/31 01:28:30;;;;;;;7.07;5.97;;;4.90;99.90;;;;;;3623060;39;20306;-74
2020/12/31 01:30:56;;;;;;;7.35;6.22;;;4.90;99.90;;;;;;3622839;39;20371;-75
2020/12/31 01:33:23;;;;;;;12.35;6.72;;;4.90;99.90;;;;;;3621042;39;20278;-74
2020/12/31 01:35:49;;;;;;;5.50;5.00;;;5.00;99.90;;;;;;3626159;39;20243;-74
2020/12/31 01:38:16;;;;;;;9.93;6.43;;;5.00;99.90;;;;;;3623309;39;20466;-75
2020/12/31 01:40:47;;;;;;;11.43;6.47;;;5.00;99.90;;;;;;3621225;39;20259;-75
2020/12/31 01:43:14;;;;;;;9.80;5.78;;;5.00;99.90;;;;;;3624358;39;20743;-74
2020/12/31 01:45:40;;;;;;;11.32;6.22;;;5.00;99.90;;;;;;3620669;39;20270;-74
2020/12/31 01:48:08;;;;;;;9.43;6.75;;;5.00;99.90;;;;;;3621645;39;20328;-75
2020/12/31 01:50:34;;;;;;;11.52;6.68;;;5.00;99.90;;;;;;3621386;39;20772;-75
2020/12/31 01:53:01;;;;;;;11.90;5.72;;;5.00;99.90;;;;;;3620975;39;20240;-75
2020/12/31 01:55:27;;;;;;;12.82;7.80;;;5.10;99.90;;;;;;3621261;39;20266;-75
2020/12/31 01:57:55;;;;;;;12.23;8.65;;;5.10;99.90;;;;;;3629594;39;20263;-75
2020/12/31 02:00:21;;;;;;;10.38;6.70;;;5.20;99.90;;;;;;3621825;39;20247;-75
2020/12/31 02:02:47;;;;;;;12.30;7.15;;;5.30;99.90;;;;;;3621862;39;20408;-75
2020/12/31 02:05:14;;;;;;;13.15;7.60;;;5.30;99.90;;;;;;3623741;39;20264;-75
2020/12/31 02:07:42;;;;;;;11.98;7.25;;;5.30;99.90;;;;;;3620755;39;20261;-75
2020/12/31 02:10:08;;;;;;;11.20;7.28;;;5.20;99.90;;;;;;3625953;39;20259;-75
2020/12/31 02:12:37;;;;;;;9.05;6.97;;;5.20;99.90;;;;;;3623747;39;20786;-75
2020/12/31 02:15:06;;;;;;;12.30;7.50;;;5.20;99.90;;;;;;3620403;39;20306;-75
2020/12/31 02:17:32;;;;;;;9.93;7.65;;;5.20;99.90;;;;;;3621156;39;20231;-75
2020/12/31 02:19:58;;;;;;;11.52;7.30;;;5.10;99.90;;;;;;3620609;39;20259;-75
2020/12/31 02:22:26;;;;;;;13.93;8.43;;;5.10;99.90;;;;;;3623496;39;20251;-75
2020/12/31 02:24:53;;;;;;;13.32;7.97;;;5.10;99.90;;;;;;3620631;39;20344;-75
2020/12/31 02:27:19;;;;;;;12.65;7.63;;;5.00;99.90;;;;;;3623490;31;20255;-75
2020/12/31 02:29:46;;;;;;;14.55;8.13;;;5.10;99.90;;;;;;3620391;39;20248;-75
2020/12/31 02:32:12;;;;;;;15.55;7.68;;;5.10;99.90;;;;;;3620532;39;20284;-75
2020/12/31 02:34:39;;;;;;;11.90;7.65;;;5.10;99.90;;;;;;3619963;39;20247;-75
2020/12/31 02:37:05;;;;;;;12.20;7.40;;;5.10;99.90;;;;;;3620373;39;20760;-75
2020/12/31 02:39:32;;;;;;;13.90;8.10;;;5.10;99.90;;;;;;3620189;39;20239;-75
2020/12/31 02:41:59;;;;;;;12.18;7.63;;;5.10;99.90;;;;;;3620435;39;20251;-75
2020/12/31 02:44:25;;;;;;;12.40;8.10;;;5.20;99.90;;;;;;3620786;39;20411;-75
2020/12/31 02:46:52;;;;;;;11.45;7.60;;;5.20;99.90;;;;;;3622966;39;20303;-75
2020/12/31 02:49:18;;;;;;;13.57;8.18;;;5.30;99.90;;;;;;3622648;39;20266;-75
2020/12/31 02:51:46;;;;;;;9.73;7.20;;;5.30;99.90;;;;;;3619981;39;20255;-75
2020/12/31 02:54:12;;;;;;;13.25;7.50;;;5.20;99.90;;;;;;3622697;39;20323;-75
2020/12/31 02:56:40;;;;;;;12.20;7.95;;;5.20;99.90;;;;;;3622346;39;20850;-76
2020/12/31 02:59:06;;;;;;;10.35;7.20;;;5.20;99.90;;;;;;3624659;39;20279;-75
2020/12/31 03:01:33;;;;;;;13.13;7.47;;;5.20;99.90;;;;;;3621529;39;20279;-76
2020/12/31 03:03:59;;;;;;;10.75;7.93;;;5.20;99.90;;;;;;3620471;39;20275;-75
2020/12/31 03:06:26;;;;;;;11.38;7.72;;;5.20;99.90;;;;;;3620237;39;20243;-75
2020/12/31 03:08:52;;;;;;;11.48;7.55;;;5.30;99.90;;;;;;3620305;39;20263;-75
2020/12/31 03:11:20;;;;;;;9.70;7.53;;;5.30;99.90;;;;;;3623863;39;20279;-75
2020/12/31 03:13:48;;;;;;;11.73;8.02;;;5.40;99.90;;;;;;3620391;39;20248;-75
2020/12/31 03:16:14;;;;;;;12.13;8.20;;;5.40;99.90;;;;;;3620524;39;20252;-75
2020/12/31 03:18:41;;;;;;;13.27;8.13;;;5.30;99.90;;;;;;3620149;39;20266;-75
2020/12/31 03:21:09;;;;;;;9.73;7.32;;;5.30;99.90;;;;;;3619971;39;20382;-75
2020/12/31 03:23:35;;;;;;;11.07;7.75;;;5.30;99.90;;;;;;3648941;31;20286;-76
2020/12/31 03:26:02;;;;;;;11.80;7.32;;;5.20;99.90;;;;;;3619949;39;20244;-75
2020/12/31 03:28:28;;;;;;;9.73;6.53;;;5.20;99.90;;;;;;3620211;39;20290;-75
2020/12/31 03:30:56;;;;;;;18.00;7.30;;;5.30;99.90;;;;;;3620707;39;20291;-75
2020/12/31 03:33:22;;;;;;;10.25;6.75;;;5.30;99.90;;;;;;3623003;39;20248;-75
2020/12/31 03:35:50;;;;;;;8.65;6.13;;;5.20;99.90;;;;;;3620160;39;20272;-75
2020/12/31 03:38:19;;;;;;;9.00;6.47;;;5.10;99.90;;;;;;3620265;39;20283;-75
2020/12/31 03:40:45;;;;;;;9.40;6.38;;;5.00;99.90;;;;;;3620257;39;20260;-75
2020/12/31 03:43:12;;;;;;;10.35;6.75;;;5.00;99.90;;;;;;3620286;39;20301;-75
2020/12/31 03:45:38;;;;;;;7.30;5.60;;;5.10;99.90;;;;;;3624399;39;20248;-75
2020/12/31 03:48:06;;;;;;;9.07;6.60;;;5.10;99.90;;;;;;3622374;39;20248;-75
2020/12/31 03:50:32;;;;;;;8.43;6.45;;;5.10;99.90;;;;;;3622217;39;20235;-75
2020/12/31 03:52:59;;;;;;;10.43;6.95;;;5.10;99.90;;;;;;3622563;39;20367;-75
2020/12/31 03:55:26;;;;;;;6.72;6.05;;;5.00;99.90;;;;;;3628449;39;20244;-75
2020/12/31 03:57:52;;;;;;;9.30;6.28;;;5.10;99.90;;;;;;3622428;39;20256;-75
2020/12/31 04:00:19;;;;;;;10.55;6.97;;;5.10;99.90;;;;;;3621521;39;20294;-76
2020/12/31 04:02:45;;;;;;;9.80;6.78;;;5.00;99.90;;;;;;3622228;39;20287;-75
2020/12/31 04:05:13;;;;;;;9.80;6.00;;;5.00;99.90;;;;;;3621980;39;20248;-75
2020/12/31 04:07:39;;;;;;;8.32;6.47;;;4.90;99.90;;;;;;3621844;39;20281;-75
2020/12/31 04:10:06;;;;;;;9.48;5.93;;;4.90;99.90;;;;;;3628619;39;20255;-75
2020/12/31 04:12:32;;;;;;;8.45;6.00;;;4.90;99.90;;;;;;3621761;39;20259;-75
2020/12/31 04:14:59;;;;;;;7.38;5.63;;;4.90;99.90;;;;;;3625114;39;20296;-75
2020/12/31 04:17:25;;;;;;;8.40;5.35;;;4.90;99.90;;;;;;3621960;39;20248;-75
2020/12/31 04:19:52;;;;;;;9.98;5.97;;;4.80;99.90;;;;;;3625128;39;20240;-75
2020/12/31 04:22:19;;;;;;;10.52;6.68;;;4.80;99.90;;;;;;3627147;39;20255;-75
2020/12/31 04:24:46;;;;;;;7.82;5.13;;;4.90;99.90;;;;;;3623622;39;20244;-75
2020/12/31 04:27:12;;;;;;;8.00;6.63;;;4.80;99.90;;;;;;3626987;39;20279;-76
2020/12/31 04:29:39;;;;;;;7.28;5.43;;;4.70;99.90;;;;;;3622315;39;20271;-75
2020/12/31 04:32:05;;;;;;;7.35;5.65;;;4.80;99.90;;;;;;3624795;39;20275;-75
2020/12/31 04:34:31;;;;;;;10.32;6.00;;;4.70;99.90;;;;;;3624997;39;20317;-75
2020/12/31 04:36:58;;;;;;;7.15;5.13;;;4.70;99.90;;;;;;3624624;39;20267;-75
2020/12/31 04:39:25;;;;;;;6.70;5.43;;;4.70;99.90;;;;;;3621705;39;20262;-75
2020/12/31 04:41:56;;;;;;;7.07;5.93;;;4.70;99.90;;;;;;3621295;39;20260;-75
2020/12/31 04:44:23;;;;;;;7.32;5.53;;;4.60;99.90;;;;;;3621391;39;20252;-74
2020/12/31 04:46:54;;;;;;;7.78;5.40;;;4.60;99.90;;;;;;3626165;39;20271;-75
2020/12/31 04:49:26;;;;;;;6.47;5.30;;;4.60;99.90;;;;;;3621022;39;20302;-75
2020/12/31 04:51:54;;;;;;;7.45;5.55;;;4.70;99.90;;;;;;3621778;39;20260;-75
2020/12/31 04:54:21;;;;;;;9.40;5.95;;;4.70;99.90;;;;;;3621141;39;20328;-75
2020/12/31 04:56:49;;;;;;;9.60;5.97;;;4.60;99.90;;;;;;3622261;39;20255;-75
2020/12/31 04:59:15;;;;;;;11.40;6.05;;;4.60;99.90;;;;;;3620229;39;20267;-75
2020/12/31 05:01:44;;;;;;;9.40;6.28;;;4.50;99.90;;;;;;3622846;39;20339;-75
2020/12/31 05:04:11;;;;;;;9.27;6.20;;;4.40;99.90;;;;;;3624761;39;20282;-75
2020/12/31 05:06:40;;;;;;;10.10;6.45;;;4.40;99.90;;;;;;3621395;39;20260;-75
2020/12/31 05:09:17;;;;;;;10.93;6.35;;;4.40;99.90;;;;;;3622172;39;20765;-74
2020/12/31 05:11:48;;;;;;;9.88;7.35;;;4.60;99.90;;;;;;3621454;39;20259;-75
2020/12/31 05:14:25;;;;;;;10.63;7.10;;;4.50;99.90;;;;;;3627969;31;20248;-75
2020/12/31 05:16:52;;;;;;;11.75;6.70;;;4.50;99.90;;;;;;3621269;39;20328;-75
2020/12/31 05:19:23;;;;;;;10.30;7.85;;;4.60;99.90;;;;;;3622945;39;20273;-75
2020/12/31 05:22:09;;;;;;;11.02;7.85;;;4.70;99.90;;;;;;3620075;39;20248;-75
2020/12/31 05:24:35;;;;;;;12.02;7.60;;;4.80;99.90;;;;;;3621002;39;20270;-75
2020/12/31 05:27:22;;;;;;;11.45;7.35;;;4.70;99.90;;;;;;3625996;31;20256;-75
2020/12/31 05:29:57;;;;;;;12.57;7.15;;;4.60;99.90;;;;;;3623477;39;20699;-75
2020/12/31 05:32:24;;;;;;;12.82;7.47;;;4.60;99.90;;;;;;3625287;39;20255;-75
2020/12/31 05:34:52;;;;;;;9.50;6.70;;;4.60;99.90;;;;;;3624063;39;20363;-74
2020/12/31 05:37:19;;;;;;;10.35;6.65;;;4.60;99.90;;;;;;3621768;39;20240;-75
2020/12/31 05:40:04;;;;;;;9.38;6.80;;;4.70;99.90;;;;;;3621525;39;20274;-75
2020/12/31 05:42:33;;;;;;;11.52;6.45;;;4.70;99.90;;;;;;3621850;39;20290;-75
2020/12/31 05:45:01;;;;;;;11.45;6.93;;;4.70;99.90;;;;;;3623538;39;20316;-75
2020/12/31 05:47:28;;;;;;;9.25;6.65;;;4.80;99.90;;;;;;3621881;39;20243;-75
2020/12/31 05:49:54;;;;;;;9.88;6.85;;;4.80;99.90;;;;;;3621449;39;20271;-75
2020/12/31 05:52:38;;;;;;;10.27;7.35;;;4.90;99.90;;;;;;3620988;39;20286;-75
2020/12/31 05:55:07;;;;;;;10.75;6.97;;;5.00;99.90;;;;;;3620615;39;20268;-75
2020/12/31 05:57:45;;;;;;;13.50;7.20;;;5.00;99.90;;;;;;3620552;39;20255;-76
2020/12/31 06:00:14;;;;;;;8.60;7.47;;;4.90;99.90;;;;;;3620724;39;20274;-75
2020/12/31 06:02:46;;;;;;;9.05;7.55;;;4.80;99.90;;;;;;3621550;39;20256;-75
2020/12/31 06:05:15;;;;;;;16.33;7.60;;;4.80;99.90;;;;;;3624209;39;20246;-75
2020/12/31 06:07:44;;;;;;;11.77;8.07;;;4.80;99.90;;;;;;3620972;39;20328;-75
2020/12/31 06:10:13;;;;;;;12.85;7.75;;;4.80;99.90;;;;;;3624244;39;20267;-75
2020/12/31 06:12:52;;;;;;;14.43;8.07;;;4.80;99.90;;;;;;3620927;39;20288;-76
2020/12/31 06:15:21;;;;;;;8.02;6.07;;;4.80;99.90;;;;;;3623817;39;20263;-76
2020/12/31 06:17:49;;;;;;;12.18;7.40;;;4.80;99.90;;;;;;3620092;39;20286;-75
2020/12/31 06:20:16;;;;;;;9.93;6.97;;;4.80;99.90;;;;;;3621300;39;20289;-75
2020/12/31 06:23:03;;;;;;;9.35;6.95;;;4.70;99.90;;;;;;3620838;39;20270;-76
2020/12/31 06:25:35;;;;;;;10.48;6.95;;;4.70;99.90;;;;;;3620463;39;20278;-76
2020/12/31 06:28:06;;;;;;;9.07;6.15;;;4.70;99.90;;;;;;3623089;39;20248;-76
2020/12/31 06:30:34;;;;;;;8.98;6.57;;;4.70;99.90;;;;;;3620936;39;20240;-76
2020/12/31 06:33:06;;;;;;;12.30;7.68;;;4.70;99.90;;;;;;3620608;39;20292;-76
2020/12/31 06:35:34;;;;;;;10.13;6.18;;;4.70;99.90;;;;;;3620704;39;20267;-76
2020/12/31 06:38:01;;;;;;;11.82;6.68;;;4.60;99.90;;;;;;3621035;39;20691;-76
2020/12/31 06:40:29;;;;;;;12.68;7.05;;;4.60;99.90;;;;;;3620635;39;20295;-76
2020/12/31 06:43:04;;;;;;;10.20;6.38;;;4.60;99.90;;;;;;3620536;39;20270;-75
2020/12/31 06:45:39;;;;;;;7.90;6.07;;;4.60;99.90;;;;;;3620499;39;20266;-75
2020/12/31 06:48:34;;;;;;;12.90;6.30;;;4.70;99.90;;;;;;3621387;39;20305;-75
2020/12/31 06:51:02;;;;;;;9.93;6.78;;;4.70;99.90;;;;;;3620389;39;20339;-75
2020/12/31 06:53:34;;;;;;;14.73;6.88;;;4.60;99.90;;;;;;3623971;39;20293;-75
2020/12/31 06:56:02;;;;;;;14.30;6.50;;;4.60;99.90;;;;;;3621897;39;20449;-75
2020/12/31 06:58:30;;;;;;;7.93;5.57;;;4.60;99.90;;;;;;3625136;39;20375;-75
2020/12/31 07:00:57;;;;;;;7.72;5.78;;;4.60;99.90;;;;;;3623294;39;20282;-75
2020/12/31 07:03:45;;;;;;;10.05;6.18;;;4.60;99.90;;;;;;3623268;39;20303;-75
2020/12/31 07:06:30;;;;;;;11.07;5.72;;;4.50;99.90;;;;;;3620396;39;20757;-75
2020/12/31 07:08:59;;;;;;;8.35;4.80;;;4.50;99.90;;;;;;3619339;39;20276;-75
2020/12/31 07:11:33;;;;;;;8.43;5.90;;;4.60;99.90;;;;;;3620573;39;20244;-75
2020/12/31 07:14:02;;;;;;;10.75;6.35;;;4.60;99.90;;;;;;3620386;39;20267;-75
2020/12/31 07:16:39;;;;;;;7.80;5.50;;;4.60;99.90;;;;;;3621062;39;20283;-75
2020/12/31 07:19:06;;;;;;;7.22;5.00;;;4.70;99.90;;;;;;3625593;39;20259;-75
2020/12/31 07:21:35;;;;;;;7.13;4.95;;;4.70;99.90;;;;;;3621848;39;20262;-75
2020/12/31 07:24:26;;;;;;;6.95;5.57;;;4.70;99.90;;;;;;3622093;39;20340;-75
2020/12/31 07:26:56;;;;;;;7.13;4.97;;;4.70;99.90;;;;;;3622533;39;20266;-75
2020/12/31 07:29:32;;;;;;;7.78;6.10;;;4.80;99.90;;;;;;3639377;31;20332;-75
2020/12/31 07:32:01;;;;;;;7.40;5.82;;;4.80;99.90;;;;;;3629334;39;20411;-75
2020/12/31 07:34:28;;;;;;;7.70;5.73;;;4.70;99.90;;;;;;3623853;39;20113;-76
2020/12/31 07:37:03;;;;;;;7.70;5.05;;;4.60;99.90;;;;;;3622145;39;20351;-76
2020/12/31 07:39:30;;;;;;;7.45;5.40;;;4.60;99.90;;;;;;3624332;31;20279;-76
2020/12/31 07:42:14;;;;;;;5.97;5.10;;;4.50;99.90;;;;;;3621736;39;20302;-76
2020/12/31 07:44:53;;;;;;;6.25;4.75;;;4.40;99.90;;;;;;3622837;39;20285;-75
2020/12/31 07:47:21;;;;;;;5.68;4.78;;;4.40;99.90;;;;;;3622623;39;20247;-75
2020/12/31 07:49:49;;;;;;;6.07;5.13;;;4.20;99.90;;;;;;3621846;39;20255;-75
2020/12/31 07:52:16;;;;;;;5.72;4.70;;;4.30;99.90;;;;;;3621745;39;20263;-76
2020/12/31 07:54:43;;;;;;;6.25;5.30;;;4.30;99.90;;;;;;3625451;39;20367;-76
2020/12/31 07:57:13;;;;;;;7.32;5.20;;;4.20;99.90;;;;;;3623012;39;20266;-76
2020/12/31 07:59:41;;;;;;;6.85;4.93;;;4.20;99.90;;;;;;3626017;32;20842;-75
2020/12/31 08:02:09;;;;;;;5.45;4.15;;;4.20;99.90;;;;;;3622078;39;20340;-75
2020/12/31 08:04:35;;;;;;;6.95;5.68;;;4.20;99.90;;;;;;3624142;39;20271;-76
2020/12/31 08:07:14;;;;;;;9.25;4.75;;;4.30;99.90;;;;;;3623655;39;20753;-78
2020/12/31 08:09:41;;;;;;;4.82;4.20;;;4.20;99.90;;;;;;3624632;39;20244;-77
2020/12/31 08:12:10;;;;;;;6.35;4.32;;;4.20;99.90;;;;;;3621068;39;20262;-77
2020/12/31 08:14:41;;;;;;;4.97;3.70;;;4.20;99.90;;;;;;3645854;31;21379;-77
2020/12/31 08:17:09;;;;;;;5.03;3.90;;;4.20;99.90;;;;;;3624140;31;20353;-77
2020/12/31 08:19:36;;;;;;;6.57;4.50;;;4.30;99.90;;;;;;3622228;39;20259;-77
2020/12/31 08:22:19;;;;;;;5.85;3.83;;;4.40;99.90;;;;;;3622985;39;20376;-77
2020/12/31 08:24:49;;;;;;;17.63;8.02;;;4.40;99.90;;;;;;3623973;39;20279;-77
2020/12/31 08:27:20;;;;;;;13.63;6.28;;;4.40;99.90;;;;;;3625923;39;20665;-77
2020/12/31 08:29:47;;;;;;;6.68;4.32;;;4.50;99.90;;;;;;3625451;39;20268;-77
2020/12/31 08:32:23;;;;;;;5.90;4.13;;;4.50;99.90;;;;;;3623800;39;20356;-76
2020/12/31 08:34:57;;;;;;;8.50;4.28;;;4.60;99.90;;;;;;3621944;39;20255;-77
2020/12/31 08:37:25;;;;;;;5.25;4.25;;;4.60;99.90;;;;;;3621887;39;20267;-77
2020/12/31 08:39:53;;;;;;;6.40;4.13;;;4.60;99.90;;;;;;3629224;39;20243;-77
2020/12/31 08:42:21;;;;;;;4.90;3.70;;;4.60;99.90;;;;;;3622679;39;20260;-77
2020/12/31 08:44:56;;;;;;;5.20;4.32;;;4.60;99.90;;;;;;3628111;39;20255;-77
2020/12/31 08:47:25;;;;;;;7.32;4.68;;;4.70;99.90;;;;;;3622383;39;20277;-77
2020/12/31 08:49:57;;;;;;;8.20;3.65;;;4.70;99.90;;;;;;3622288;39;20256;-77
2020/12/31 08:52:25;;;;;;;4.53;3.83;;;4.70;99.90;;;;;;3627065;39;20318;-77
2020/12/31 08:55:12;;;;;;;5.93;4.65;;;4.70;99.90;;;;;;3626743;39;20266;-77
2020/12/31 08:57:39;;;;;;;4.97;3.60;;;4.60;99.90;;;;;;3626880;39;20251;-77
2020/12/31 09:00:07;;;;;;;6.03;4.25;;;4.50;99.90;;;;;;3628753;39;20247;-77
2020/12/31 09:02:35;;;;;;;5.60;3.90;;;4.50;99.90;;;;;;3622099;39;20252;-77
2020/12/31 09:05:15;;;;;;;4.88;4.03;;;4.60;99.90;;;;;;3626034;39;20367;-77
2020/12/31 09:07:42;;;;;;;9.65;5.20;;;4.60;99.90;;;;;;3628583;39;20251;-77
2020/12/31 09:10:16;;;;;;;6.35;4.70;;;4.60;99.90;;;;;;3627391;39;20270;-77
2020/12/31 09:12:43;;;;;;;5.00;3.92;;;4.60;99.90;;;;;;3622004;39;20277;-77
2020/12/31 09:15:20;;;;;;;7.57;5.07;;;4.60;99.90;;;;;;3621068;39;20268;-77
2020/12/31 09:17:48;;;;;;;5.95;4.38;;;4.60;99.90;;;;;;3624133;39;20235;-77
2020/12/31 09:20:24;;;;;;;8.40;5.88;;;4.70;99.90;;;;;;3624173;31;20340;-77
2020/12/31 09:22:51;;;;;;;8.93;4.75;;;4.70;99.90;;;;;;3625126;39;20347;-77
2020/12/31 09:25:19;;;;;;;7.75;5.00;;;4.70;99.90;;;;;;3621479;39;20251;-77
2020/12/31 09:27:46;;;;;;;10.13;5.60;;;4.80;99.90;;;;;;3625459;39;20698;-77
2020/12/31 09:30:16;;;;;;;7.60;5.15;;;4.80;99.90;;;;;;3622217;39;20252;-77
2020/12/31 09:32:49;;;;;;;8.02;5.50;;;4.90;99.90;;;;;;3621985;39;20275;-77
2020/12/31 09:35:17;;;;;;;9.98;5.63;;;4.80;99.90;;;;;;3626829;39;20323;-77
2020/12/31 09:37:52;;;;;;;9.98;5.38;;;4.80;99.90;;;;;;3650558;31;20334;-77
2020/12/31 09:40:19;;;;;;;7.00;5.30;;;4.70;99.90;;;;;;3623575;39;20291;-77
2020/12/31 09:42:46;;;;;;;8.30;5.63;;;4.70;99.90;;;;;;3621043;39;20268;-77
2020/12/31 09:45:12;;;;;;;8.23;5.60;;;4.70;99.90;;;;;;3655707;32;20272;-77
2020/12/31 09:47:39;;;;;;;8.57;5.72;;;4.80;99.90;;;;;;3624752;39;20337;-77
2020/12/31 09:50:09;;;;;;;9.35;6.25;;;4.80;99.90;;;;;;3621075;39;20244;-77
2020/12/31 09:52:37;;;;;;;8.07;6.07;;;4.80;99.90;;;;;;3622327;39;20272;-77
2020/12/31 09:55:04;;;;;;;7.93;5.95;;;4.80;99.90;;;;;;3625167;39;20274;-77
2020/12/31 09:57:31;;;;;;;11.55;6.55;;;4.80;99.90;;;;;;3623570;39;20309;-77
2020/12/31 09:59:57;;;;;;;9.25;6.53;;;4.80;99.90;;;;;;3628058;39;20248;-77
2020/12/31 10:02:24;;;;;;;9.30;6.20;;;4.90;99.90;;;;;;3622017;39;20287;-77
2020/12/31 10:04:50;;;;;;;8.55;5.85;;;4.90;99.90;;;;;;3627191;39;20276;-77
2020/12/31 10:07:18;;;;;;;9.57;6.28;;;4.90;99.90;;;;;;3623529;39;20756;-77
2020/12/31 10:09:44;;;;;;;8.65;6.50;;;5.00;99.90;;;;;;3620376;39;20818;-77
2020/12/31 10:12:14;;;;;;;8.32;5.32;;;5.00;99.90;;;;;;3625590;31;21073;-77
2020/12/31 10:14:40;;;;;;;12.40;6.60;;;5.10;99.90;;;;;;3623189;39;20282;-77
2020/12/31 10:17:07;;;;;;;9.80;5.68;;;5.20;99.90;;;;;;3626028;39;20243;-77
2020/12/31 10:19:34;;;;;;;7.53;5.60;;;5.20;99.90;;;;;;3622154;39;20401;-76
2020/12/31 10:22:01;;;;;;;8.90;6.00;;;5.20;99.90;;;;;;3622339;39;20640;-76
2020/12/31 10:24:28;;;;;;;9.30;6.80;;;5.20;99.90;;;;;;3622847;39;20308;-76
2020/12/31 10:26:55;;;;;;;8.15;5.72;;;5.30;99.90;;;;;;3623127;39;20364;-76
2020/12/31 10:29:21;;;;;;;7.30;5.80;;;5.40;99.90;;;;;;3623079;39;20287;-76
2020/12/31 10:31:51;;;;;;;8.25;5.68;;;5.50;99.90;;;;;;3620296;39;20267;-76
2020/12/31 10:34:18;;;;;;;6.63;5.35;;;5.60;99.90;;;;;;3624033;39;20251;-77
2020/12/31 10:36:50;;;;;;;7.15;5.65;;;5.60;99.90;;;;;;3620493;39;20255;-77
2020/12/31 10:39:16;;;;;;;8.35;5.43;;;5.70;99.90;;;;;;3623900;39;20310;-76
2020/12/31 10:41:45;;;;;;;6.90;5.57;;;5.60;99.90;;;;;;3620308;39;20252;-77
2020/12/31 10:44:11;;;;;;;7.55;5.70;;;5.50;99.90;;;;;;3620764;39;20265;-77
2020/12/31 10:46:38;;;;;;;8.50;5.47;;;5.50;99.90;;;;;;3623618;39;20256;-76
2020/12/31 10:49:04;;;;;;;7.30;5.72;;;5.40;99.90;;;;;;3620767;39;20348;-76
2020/12/31 10:51:33;;;;;;;7.32;5.47;;;5.50;99.90;;;;;;3623147;39;20293;-76
2020/12/31 10:54:00;;;;;;;6.45;4.72;;;5.40;99.90;;;;;;3620918;39;20283;-76
2020/12/31 10:56:26;;;;;;;8.30;5.38;;;5.40;99.90;;;;;;3624412;39;20244;-76
2020/12/31 10:58:53;;;;;;;5.97;4.50;;;5.40;99.90;;;;;;3623131;39;20256;-76
2020/12/31 11:01:20;;;;;;;8.00;4.80;;;5.40;99.90;;;;;;3622511;39;20283;-76
2020/12/31 11:08:06;;;;;;;6.80;5.05;;;5.50;99.90;;;;;;3652791;31;20333;-75
2020/12/31 11:10:32;;;;;;;7.07;5.18;;;5.60;99.90;;;;;;3644641;39;20338;-76
2020/12/31 11:13:01;;;;;;;8.55;5.35;;;5.60;99.90;;;;;;3643685;39;20247;-75
2020/12/31 11:15:27;;;;;;;6.88;5.15;;;5.70;99.90;;;;;;3645252;39;20291;-76
2020/12/31 11:17:54;;;;;;;6.38;5.20;;;5.70;99.90;;;;;;3642725;39;20244;-76
2020/12/31 11:20:20;;;;;;;8.00;6.10;;;5.70;99.90;;;;;;3643031;39;20378;-76
2020/12/31 11:22:48;;;;;;;7.05;5.38;;;5.70;99.90;;;;;;3641145;39;20286;-76
2020/12/31 11:25:15;;;;;;;8.73;5.30;;;5.70;99.90;;;;;;3639273;39;20396;-75
2020/12/31 11:27:42;;;;;;;8.77;6.28;;;5.60;99.90;;;;;;3641551;39;20644;-75
2020/12/31 11:30:08;;;;;;;6.85;5.90;;;5.50;99.90;;;;;;3639294;39;20272;-75
2020/12/31 11:32:37;;;;;;;6.13;5.45;;;5.50;99.90;;;;;;3639898;39;20267;-75
2020/12/31 11:35:04;;;;;;;6.45;5.20;;;5.50;99.90;;;;;;3641241;39;20312;-75
2020/12/31 11:37:32;;;;;;;5.80;5.20;;;5.50;99.90;;;;;;3640998;39;20235;-75
2020/12/31 11:39:59;;;;;;;5.30;4.63;;;5.60;99.90;;;;;;3642734;39;20349;-75
2020/12/31 11:42:32;;;;;;;7.90;5.68;;;5.70;99.90;;;;;;3639418;39;20251;-76
2020/12/31 11:44:58;;;;;;;5.60;5.07;;;5.60;99.90;;;;;;3652223;31;20782;-76
2020/12/31 11:47:25;;;;;;;7.30;5.78;;;5.50;99.90;;;;;;3643221;39;20251;-76
2020/12/31 11:49:52;;;;;;;7.53;5.50;;;5.50;99.90;;;;;;3645102;39;20688;-76
2020/12/31 11:52:23;;;;;;;6.20;5.60;;;5.50;99.90;;;;;;3647265;31;20306;-76
2020/12/31 11:54:49;;;;;;;7.47;5.75;;;5.50;99.90;;;;;;3644840;39;20243;-76
2020/12/31 11:57:17;;;;;;;7.43;6.05;;;5.50;99.90;;;;;;3643120;39;20291;-76
2020/12/31 11:59:44;;;;;;;6.80;5.68;;;5.60;99.90;;;;;;3640971;39;20286;-76
2020/12/31 12:02:11;;;;;;;5.95;4.82;;;5.50;99.90;;;;;;3642029;39;20262;-76
2020/12/31 12:04:37;;;;;;;6.65;5.78;;;5.60;99.90;;;;;;3641487;39;20243;-76
2020/12/31 12:07:05;;;;;;;5.95;5.20;;;5.60;99.90;;;;;;3640502;39;20331;-76
2020/12/31 12:09:33;;;;;;;5.65;5.05;;;5.70;99.90;;;;;;3639830;39;20301;-76
2020/12/31 12:11:59;;;;;;;7.60;5.22;;;5.60;99.90;;;;;;3642334;39;20587;-76
2020/12/31 12:14:26;;;;;;;5.07;4.57;;;5.50;99.90;;;;;;3640283;39;20730;-76
2020/12/31 12:16:53;;;;;;;7.22;4.75;;;5.70;99.90;;;;;;3636436;39;20290;-77
2020/12/31 12:19:19;;;;;;;6.95;5.07;;;5.70;99.90;;;;;;3661444;31;20338;-77
2020/12/31 12:21:46;;;;;;;7.63;6.07;;;5.70;99.90;;;;;;3635002;39;20259;-77
2020/12/31 12:24:13;;;;;;;6.22;5.18;;;5.70;99.90;;;;;;3632314;39;20278;-77
2020/12/31 12:26:40;;;;;;;5.65;5.05;;;5.70;99.90;;;;;;3632649;39;20685;-76
2020/12/31 12:29:08;;;;;;;10.70;6.72;;;5.80;99.90;;;;;;3637675;39;20581;-76
2020/12/31 12:31:36;;;;;;;6.63;5.00;;;5.70;99.90;;;;;;3637476;39;20285;-77
2020/12/31 12:34:05;;;;;;;6.30;5.18;;;5.70;99.90;;;;;;3637836;39;20256;-76
2020/12/31 12:36:32;;;;;;;6.03;5.43;;;5.60;99.90;;;;;;3633151;39;20247;-77
2020/12/31 12:38:58;;;;;;;5.35;4.57;;;5.60;99.90;;;;;;3635768;39;20235;-76
2020/12/31 12:41:25;;;;;;;5.55;5.00;;;5.60;99.90;;;;;;3634268;39;20270;-76
2020/12/31 12:43:52;;;;;;;6.35;4.70;;;5.60;99.90;;;;;;3639306;31;20243;-77
2020/12/31 12:46:20;;;;;;;4.57;4.18;;;5.50;99.90;;;;;;3632488;39;20248;-76
2020/12/31 12:48:47;;;;;;;5.70;5.05;;;5.50;99.90;;;;;;3631657;39;20259;-77
2020/12/31 12:51:14;;;;;;;4.78;4.38;;;5.50;99.90;;;;;;3631404;39;20290;-77
2020/12/31 12:53:41;;;;;;;10.77;4.22;;;5.30;99.90;;;;;;3632168;39;20260;-77
2020/12/31 12:56:11;;;;;;;8.55;3.88;;;5.20;99.90;;;;;;3634797;39;20255;-76
2020/12/31 12:58:39;;;;;;;5.43;4.75;;;5.20;99.90;;;;;;3634207;39;20259;-76
2020/12/31 13:01:07;;;;;;;4.47;3.80;;;5.20;99.90;;;;;;3633686;39;20271;-77
2020/12/31 13:03:35;;;;;;;4.38;3.97;;;5.40;99.90;;;;;;3632765;39;20260;-76